sensor_id;sensor_type;location;lat;lon;timestamp;P1;durP1;ratioP1;P2;durP2;ratioP2
3523;SDS011;1776;53.330;11.498;2023-02-01T00:02:16;9.37;;;1.77;;
3523;SDS011;1776;53.330;11.498;2023-02-01T00:04:42;9.10;;;1.93;;
3523;SDS011;1776;53.330;11.498;2023-02-01T00:07:07;9.20;;;1.77;;
3523;SDS011;1776;53.330;11.498;2023-02-01T00:09:32;4.60;;;1.53;;
3523;SDS011;1776;53.330;11.498;2023-02-01T00:11:58;5.17;;;1.70;;
3523;SDS011;1776;53.330;11.498;2023-02-01T00:14:26;7.87;;;2.20;;
3523;SDS011;1776;53.330;11.498;2023-02-01T00:16:52;6.37;;;1.50;;
3523;SDS011;1776;53.330;11.498;2023-02-01T00:19:17;11.40;;;2.17;;
3523;SDS011;1776;53.330;11.498;2023-02-01T00:21:42;8.03;;;1.57;;
3523;SDS011;1776;53.330;11.498;2023-02-01T00:24:09;4.30;;;1.70;;
3523;SDS011;1776;53.330;11.498;2023-02-01T00:26:36;4.30;;;1.60;;
3523;SDS011;1776;53.330;11.498;2023-02-01T00:29:03;7.40;;;3.00;;
3523;SDS011;1776;53.330;11.498;2023-02-01T00:31:30;7.23;;;2.50;;
3523;SDS011;1776;53.330;11.498;2023-02-01T00:33:56;18.57;;;2.90;;
3523;SDS011;1776;53.330;11.498;2023-02-01T00:36:21;11.93;;;3.30;;
3523;SDS011;1776;53.330;11.498;2023-02-01T00:38:47;13.87;;;3.17;;
3523;SDS011;1776;53.330;11.498;2023-02-01T00:41:13;17.50;;;4.67;;
3523;SDS011;1776;53.330;11.498;2023-02-01T00:43:40;17.27;;;3.77;;
3523;SDS011;1776;53.330;11.498;2023-02-01T00:46:06;13.10;;;4.03;;
3523;SDS011;1776;53.330;11.498;2023-02-01T00:48:32;15.27;;;4.33;;
3523;SDS011;1776;53.330;11.498;2023-02-01T00:51:04;14.90;;;4.27;;
3523;SDS011;1776;53.330;11.498;2023-02-01T00:53:31;20.60;;;5.20;;
3523;SDS011;1776;53.330;11.498;2023-02-01T00:55:57;25.90;;;3.97;;
3523;SDS011;1776;53.330;11.498;2023-02-01T00:58:23;20.90;;;4.00;;
3523;SDS011;1776;53.330;11.498;2023-02-01T01:00:56;14.90;;;3.80;;
3523;SDS011;1776;53.330;11.498;2023-02-01T01:03:43;26.43;;;5.10;;
3523;SDS011;1776;53.330;11.498;2023-02-01T01:06:11;23.93;;;4.33;;
3523;SDS011;1776;53.330;11.498;2023-02-01T01:08:41;15.93;;;4.33;;
3523;SDS011;1776;53.330;11.498;2023-02-01T01:11:07;16.80;;;3.43;;
3523;SDS011;1776;53.330;11.498;2023-02-01T01:13:35;15.17;;;3.37;;
3523;SDS011;1776;53.330;11.498;2023-02-01T01:16:01;15.50;;;2.67;;
3523;SDS011;1776;53.330;11.498;2023-02-01T01:18:27;11.10;;;2.80;;
3523;SDS011;1776;53.330;11.498;2023-02-01T01:20:53;11.07;;;2.50;;
3523;SDS011;1776;53.330;11.498;2023-02-01T01:23:18;17.17;;;3.27;;
3523;SDS011;1776;53.330;11.498;2023-02-01T01:25:44;22.10;;;3.83;;
3523;SDS011;1776;53.330;11.498;2023-02-01T01:28:09;12.17;;;2.70;;
3523;SDS011;1776;53.330;11.498;2023-02-01T01:30:34;13.43;;;3.27;;
3523;SDS011;1776;53.330;11.498;2023-02-01T01:32:59;14.57;;;3.37;;
3523;SDS011;1776;53.330;11.498;2023-02-01T01:35:25;7.60;;;2.87;;
3523;SDS011;1776;53.330;11.498;2023-02-01T01:37:50;13.80;;;2.57;;
3523;SDS011;1776;53.330;11.498;2023-02-01T01:40:15;23.83;;;4.03;;
3523;SDS011;1776;53.330;11.498;2023-02-01T01:42:42;12.43;;;2.70;;
3523;SDS011;1776;53.330;11.498;2023-02-01T01:45:27;19.97;;;5.37;;
3523;SDS011;1776;53.330;11.498;2023-02-01T01:48:14;24.67;;;3.23;;
3523;SDS011;1776;53.330;11.498;2023-02-01T01:50:50;13.70;;;3.23;;
3523;SDS011;1776;53.330;11.498;2023-02-01T01:53:20;27.90;;;4.97;;
3523;SDS011;1776;53.330;11.498;2023-02-01T01:55:51;15.60;;;3.83;;
3523;SDS011;1776;53.330;11.498;2023-02-01T01:58:22;20.03;;;4.97;;
3523;SDS011;1776;53.330;11.498;2023-02-01T02:00:51;24.77;;;4.00;;
3523;SDS011;1776;53.330;11.498;2023-02-01T02:03:19;16.43;;;4.77;;
3523;SDS011;1776;53.330;11.498;2023-02-01T02:06:00;24.13;;;5.83;;
3523;SDS011;1776;53.330;11.498;2023-02-01T02:08:28;24.27;;;4.60;;
3523;SDS011;1776;53.330;11.498;2023-02-01T02:10:54;26.03;;;5.20;;
3523;SDS011;1776;53.330;11.498;2023-02-01T02:13:35;18.97;;;4.03;;
3523;SDS011;1776;53.330;11.498;2023-02-01T02:16:05;29.23;;;5.13;;
3523;SDS011;1776;53.330;11.498;2023-02-01T02:18:37;20.07;;;4.50;;
3523;SDS011;1776;53.330;11.498;2023-02-01T02:21:37;32.87;;;5.60;;
3523;SDS011;1776;53.330;11.498;2023-02-01T02:32:22;18.73;;;3.90;;
3523;SDS011;1776;53.330;11.498;2023-02-01T02:38:21;24.17;;;6.10;;
3523;SDS011;1776;53.330;11.498;2023-02-01T02:44:08;22.23;;;4.40;;
3523;SDS011;1776;53.330;11.498;2023-02-01T02:46:59;22.20;;;4.50;;
3523;SDS011;1776;53.330;11.498;2023-02-01T02:49:52;12.83;;;3.93;;
3523;SDS011;1776;53.330;11.498;2023-02-01T02:52:41;20.07;;;5.43;;
3523;SDS011;1776;53.330;11.498;2023-02-01T02:55:34;20.03;;;4.00;;
3523;SDS011;1776;53.330;11.498;2023-02-01T02:58:04;26.60;;;5.80;;
3523;SDS011;1776;53.330;11.498;2023-02-01T03:00:49;12.40;;;3.70;;
3523;SDS011;1776;53.330;11.498;2023-02-01T03:03:36;25.10;;;5.90;;
3523;SDS011;1776;53.330;11.498;2023-02-01T03:06:22;20.43;;;4.77;;
3523;SDS011;1776;53.330;11.498;2023-02-01T03:08:48;22.30;;;6.40;;
3523;SDS011;1776;53.330;11.498;2023-02-01T03:11:14;23.10;;;5.33;;
3523;SDS011;1776;53.330;11.498;2023-02-01T03:16:22;18.93;;;5.17;;
3523;SDS011;1776;53.330;11.498;2023-02-01T03:18:57;20.43;;;3.37;;
3523;SDS011;1776;53.330;11.498;2023-02-01T03:21:26;18.73;;;4.47;;
3523;SDS011;1776;53.330;11.498;2023-02-01T03:23:54;24.57;;;5.00;;
3523;SDS011;1776;53.330;11.498;2023-02-01T03:26:27;22.07;;;5.57;;
3523;SDS011;1776;53.330;11.498;2023-02-01T03:28:56;26.10;;;5.73;;
3523;SDS011;1776;53.330;11.498;2023-02-01T03:31:30;22.23;;;5.30;;
3523;SDS011;1776;53.330;11.498;2023-02-01T03:33:55;26.13;;;5.07;;
3523;SDS011;1776;53.330;11.498;2023-02-01T03:36:25;33.77;;;6.03;;
3523;SDS011;1776;53.330;11.498;2023-02-01T03:39:07;20.23;;;5.03;;
3523;SDS011;1776;53.330;11.498;2023-02-01T03:41:42;28.10;;;6.40;;
3523;SDS011;1776;53.330;11.498;2023-02-01T03:47:17;25.13;;;5.47;;
3523;SDS011;1776;53.330;11.498;2023-02-01T03:49:53;34.97;;;5.50;;
3523;SDS011;1776;53.330;11.498;2023-02-01T03:52:33;28.27;;;5.20;;
3523;SDS011;1776;53.330;11.498;2023-02-01T03:55:05;30.23;;;5.53;;
3523;SDS011;1776;53.330;11.498;2023-02-01T03:57:33;30.03;;;4.93;;
3523;SDS011;1776;53.330;11.498;2023-02-01T04:00:08;24.83;;;6.20;;
3523;SDS011;1776;53.330;11.498;2023-02-01T04:02:44;26.43;;;6.63;;
3523;SDS011;1776;53.330;11.498;2023-02-01T04:05:10;23.97;;;5.40;;
3523;SDS011;1776;53.330;11.498;2023-02-01T04:07:35;14.60;;;4.77;;
3523;SDS011;1776;53.330;11.498;2023-02-01T04:10:00;28.53;;;7.27;;
3523;SDS011;1776;53.330;11.498;2023-02-01T04:12:26;22.17;;;5.90;;
3523;SDS011;1776;53.330;11.498;2023-02-01T04:14:51;23.17;;;5.13;;
3523;SDS011;1776;53.330;11.498;2023-02-01T04:17:16;23.13;;;4.97;;
3523;SDS011;1776;53.330;11.498;2023-02-01T04:19:41;28.17;;;4.90;;
3523;SDS011;1776;53.330;11.498;2023-02-01T04:22:07;16.27;;;4.97;;
3523;SDS011;1776;53.330;11.498;2023-02-01T04:24:32;20.93;;;4.43;;
3523;SDS011;1776;53.330;11.498;2023-02-01T04:26:57;25.70;;;4.77;;
3523;SDS011;1776;53.330;11.498;2023-02-01T04:29:22;18.77;;;5.57;;
3523;SDS011;1776;53.330;11.498;2023-02-01T04:31:48;27.50;;;5.87;;
3523;SDS011;1776;53.330;11.498;2023-02-01T04:34:14;18.17;;;5.27;;
3523;SDS011;1776;53.330;11.498;2023-02-01T04:36:39;26.70;;;4.50;;
3523;SDS011;1776;53.330;11.498;2023-02-01T04:39:04;29.10;;;5.77;;
3523;SDS011;1776;53.330;11.498;2023-02-01T04:41:30;33.37;;;4.57;;
3523;SDS011;1776;53.330;11.498;2023-02-01T04:43:55;17.03;;;4.90;;
3523;SDS011;1776;53.330;11.498;2023-02-01T04:46:20;20.43;;;4.90;;
3523;SDS011;1776;53.330;11.498;2023-02-01T04:48:46;20.90;;;5.40;;
3523;SDS011;1776;53.330;11.498;2023-02-01T04:51:11;21.47;;;4.37;;
3523;SDS011;1776;53.330;11.498;2023-02-01T04:53:37;24.03;;;5.63;;
3523;SDS011;1776;53.330;11.498;2023-02-01T04:56:02;11.00;;;2.47;;
3523;SDS011;1776;53.330;11.498;2023-02-01T04:58:28;7.63;;;2.20;;
3523;SDS011;1776;53.330;11.498;2023-02-01T05:00:53;4.93;;;1.97;;
3523;SDS011;1776;53.330;11.498;2023-02-01T05:03:18;9.80;;;2.23;;
3523;SDS011;1776;53.330;11.498;2023-02-01T05:05:44;6.30;;;1.80;;
3523;SDS011;1776;53.330;11.498;2023-02-01T05:08:09;11.40;;;2.40;;
3523;SDS011;1776;53.330;11.498;2023-02-01T05:10:34;17.57;;;2.97;;
3523;SDS011;1776;53.330;11.498;2023-02-01T05:13:00;9.07;;;1.80;;
3523;SDS011;1776;53.330;11.498;2023-02-01T05:15:43;8.13;;;2.43;;
3523;SDS011;1776;53.330;11.498;2023-02-01T05:18:10;14.10;;;2.67;;
3523;SDS011;1776;53.330;11.498;2023-02-01T05:20:36;20.70;;;3.23;;
3523;SDS011;1776;53.330;11.498;2023-02-01T05:23:01;9.00;;;2.60;;
3523;SDS011;1776;53.330;11.498;2023-02-01T05:25:26;11.93;;;2.40;;
3523;SDS011;1776;53.330;11.498;2023-02-01T05:27:52;8.47;;;2.00;;
3523;SDS011;1776;53.330;11.498;2023-02-01T05:30:18;15.03;;;3.10;;
3523;SDS011;1776;53.330;11.498;2023-02-01T05:32:44;10.27;;;2.63;;
3523;SDS011;1776;53.330;11.498;2023-02-01T05:35:09;11.77;;;4.10;;
3523;SDS011;1776;53.330;11.498;2023-02-01T05:37:34;15.00;;;2.50;;
3523;SDS011;1776;53.330;11.498;2023-02-01T05:40:00;7.70;;;2.50;;
3523;SDS011;1776;53.330;11.498;2023-02-01T05:42:25;4.80;;;1.70;;
3523;SDS011;1776;53.330;11.498;2023-02-01T05:44:51;8.57;;;2.70;;
3523;SDS011;1776;53.330;11.498;2023-02-01T05:47:16;10.27;;;2.33;;
3523;SDS011;1776;53.330;11.498;2023-02-01T05:49:41;6.17;;;1.43;;
3523;SDS011;1776;53.330;11.498;2023-02-01T05:52:06;11.57;;;2.23;;
3523;SDS011;1776;53.330;11.498;2023-02-01T05:54:32;6.77;;;2.00;;
3523;SDS011;1776;53.330;11.498;2023-02-01T05:56:57;8.80;;;2.73;;
3523;SDS011;1776;53.330;11.498;2023-02-01T05:59:22;4.87;;;1.67;;
3523;SDS011;1776;53.330;11.498;2023-02-01T06:01:48;7.63;;;1.57;;
3523;SDS011;1776;53.330;11.498;2023-02-01T06:04:13;4.57;;;1.40;;
3523;SDS011;1776;53.330;11.498;2023-02-01T06:06:39;8.50;;;1.90;;
3523;SDS011;1776;53.330;11.498;2023-02-01T06:09:04;2.30;;;1.37;;
3523;SDS011;1776;53.330;11.498;2023-02-01T06:11:30;8.07;;;1.27;;
3523;SDS011;1776;53.330;11.498;2023-02-01T06:13:55;2.10;;;1.00;;
3523;SDS011;1776;53.330;11.498;2023-02-01T06:16:21;2.60;;;1.37;;
3523;SDS011;1776;53.330;11.498;2023-02-01T06:18:47;5.40;;;1.40;;
3523;SDS011;1776;53.330;11.498;2023-02-01T06:21:12;2.73;;;1.00;;
3523;SDS011;1776;53.330;11.498;2023-02-01T06:23:39;8.57;;;1.00;;
3523;SDS011;1776;53.330;11.498;2023-02-01T06:26:05;4.30;;;0.90;;
3523;SDS011;1776;53.330;11.498;2023-02-01T06:28:34;4.03;;;1.00;;
3523;SDS011;1776;53.330;11.498;2023-02-01T06:31:04;3.23;;;1.80;;
3523;SDS011;1776;53.330;11.498;2023-02-01T06:33:31;1.87;;;0.70;;
3523;SDS011;1776;53.330;11.498;2023-02-01T06:36:01;2.00;;;1.00;;
3523;SDS011;1776;53.330;11.498;2023-02-01T06:38:28;6.53;;;1.23;;
3523;SDS011;1776;53.330;11.498;2023-02-01T06:40:55;2.07;;;0.80;;
3523;SDS011;1776;53.330;11.498;2023-02-01T06:43:22;1.20;;;0.53;;
3523;SDS011;1776;53.330;11.498;2023-02-01T06:45:48;2.80;;;0.80;;
3523;SDS011;1776;53.330;11.498;2023-02-01T06:48:14;1.70;;;0.50;;
3523;SDS011;1776;53.330;11.498;2023-02-01T06:50:39;1.10;;;0.60;;
3523;SDS011;1776;53.330;11.498;2023-02-01T06:53:04;1.47;;;0.67;;
3523;SDS011;1776;53.330;11.498;2023-02-01T06:55:29;0.67;;;0.53;;
3523;SDS011;1776;53.330;11.498;2023-02-01T06:57:55;0.83;;;0.50;;
3523;SDS011;1776;53.330;11.498;2023-02-01T07:00:21;0.60;;;0.50;;
3523;SDS011;1776;53.330;11.498;2023-02-01T07:02:48;0.47;;;0.43;;
3523;SDS011;1776;53.330;11.498;2023-02-01T07:05:13;0.50;;;0.40;;
3523;SDS011;1776;53.330;11.498;2023-02-01T07:07:39;1.97;;;0.60;;
3523;SDS011;1776;53.330;11.498;2023-02-01T07:10:04;0.50;;;0.40;;
3523;SDS011;1776;53.330;11.498;2023-02-01T07:12:29;0.60;;;0.40;;
3523;SDS011;1776;53.330;11.498;2023-02-01T07:14:55;0.60;;;0.47;;
3523;SDS011;1776;53.330;11.498;2023-02-01T07:17:21;0.50;;;0.40;;
3523;SDS011;1776;53.330;11.498;2023-02-01T07:19:46;0.70;;;0.43;;
3523;SDS011;1776;53.330;11.498;2023-02-01T07:22:12;0.40;;;0.40;;
3523;SDS011;1776;53.330;11.498;2023-02-01T07:24:37;0.93;;;0.60;;
3523;SDS011;1776;53.330;11.498;2023-02-01T07:27:02;1.37;;;0.90;;
3523;SDS011;1776;53.330;11.498;2023-02-01T07:29:27;1.80;;;0.50;;
3523;SDS011;1776;53.330;11.498;2023-02-01T07:31:53;1.43;;;0.90;;
3523;SDS011;1776;53.330;11.498;2023-02-01T07:34:18;1.23;;;0.73;;
3523;SDS011;1776;53.330;11.498;2023-02-01T07:36:43;0.90;;;0.70;;
3523;SDS011;1776;53.330;11.498;2023-02-01T07:39:09;0.53;;;0.50;;
3523;SDS011;1776;53.330;11.498;2023-02-01T07:41:34;0.60;;;0.50;;
3523;SDS011;1776;53.330;11.498;2023-02-01T07:43:59;0.50;;;0.50;;
3523;SDS011;1776;53.330;11.498;2023-02-01T07:46:25;0.60;;;0.50;;
3523;SDS011;1776;53.330;11.498;2023-02-01T07:48:50;2.40;;;0.70;;
3523;SDS011;1776;53.330;11.498;2023-02-01T07:51:15;1.23;;;0.67;;
3523;SDS011;1776;53.330;11.498;2023-02-01T07:53:42;1.53;;;0.63;;
3523;SDS011;1776;53.330;11.498;2023-02-01T07:56:16;2.53;;;0.70;;
3523;SDS011;1776;53.330;11.498;2023-02-01T07:58:43;3.90;;;0.60;;
3523;SDS011;1776;53.330;11.498;2023-02-01T08:01:16;1.20;;;1.10;;
3523;SDS011;1776;53.330;11.498;2023-02-01T08:03:46;2.40;;;0.80;;
3523;SDS011;1776;53.330;11.498;2023-02-01T08:06:12;3.17;;;1.10;;
3523;SDS011;1776;53.330;11.498;2023-02-01T08:08:38;6.73;;;1.17;;
3523;SDS011;1776;53.330;11.498;2023-02-01T08:11:04;4.20;;;0.90;;
3523;SDS011;1776;53.330;11.498;2023-02-01T08:13:30;4.37;;;0.93;;
3523;SDS011;1776;53.330;11.498;2023-02-01T08:15:59;3.23;;;0.83;;
3523;SDS011;1776;53.330;11.498;2023-02-01T08:18:26;2.67;;;1.00;;
3523;SDS011;1776;53.330;11.498;2023-02-01T08:20:51;5.20;;;1.20;;
3523;SDS011;1776;53.330;11.498;2023-02-01T08:23:17;1.53;;;0.90;;
3523;SDS011;1776;53.330;11.498;2023-02-01T08:25:42;1.13;;;0.93;;
3523;SDS011;1776;53.330;11.498;2023-02-01T08:28:08;0.93;;;0.70;;
3523;SDS011;1776;53.330;11.498;2023-02-01T08:30:36;1.90;;;0.70;;
3523;SDS011;1776;53.330;11.498;2023-02-01T08:33:03;6.23;;;1.47;;
3523;SDS011;1776;53.330;11.498;2023-02-01T08:35:28;2.83;;;0.90;;
3523;SDS011;1776;53.330;11.498;2023-02-01T08:37:53;2.00;;;0.87;;
3523;SDS011;1776;53.330;11.498;2023-02-01T08:40:19;6.80;;;1.23;;
3523;SDS011;1776;53.330;11.498;2023-02-01T08:42:46;1.00;;;0.93;;
3523;SDS011;1776;53.330;11.498;2023-02-01T08:45:18;1.00;;;0.90;;
3523;SDS011;1776;53.330;11.498;2023-02-01T08:47:44;3.40;;;1.63;;
3523;SDS011;1776;53.330;11.498;2023-02-01T08:50:11;2.20;;;1.30;;
3523;SDS011;1776;53.330;11.498;2023-02-01T08:52:37;7.30;;;1.70;;
3523;SDS011;1776;53.330;11.498;2023-02-01T08:55:03;1.50;;;1.10;;
3523;SDS011;1776;53.330;11.498;2023-02-01T08:57:28;5.20;;;1.53;;
3523;SDS011;1776;53.330;11.498;2023-02-01T08:59:53;4.83;;;0.90;;
3523;SDS011;1776;53.330;11.498;2023-02-01T09:02:19;2.93;;;1.67;;
3523;SDS011;1776;53.330;11.498;2023-02-01T09:04:44;3.40;;;1.30;;
3523;SDS011;1776;53.330;11.498;2023-02-01T09:07:10;4.80;;;1.13;;
3523;SDS011;1776;53.330;11.498;2023-02-01T09:09:36;9.17;;;1.60;;
3523;SDS011;1776;53.330;11.498;2023-02-01T09:12:02;6.17;;;2.13;;
3523;SDS011;1776;53.330;11.498;2023-02-01T09:14:28;1.83;;;1.00;;
3523;SDS011;1776;53.330;11.498;2023-02-01T09:16:53;12.83;;;2.03;;
3523;SDS011;1776;53.330;11.498;2023-02-01T09:19:18;7.13;;;1.50;;
3523;SDS011;1776;53.330;11.498;2023-02-01T09:21:44;5.43;;;1.37;;
3523;SDS011;1776;53.330;11.498;2023-02-01T09:24:12;7.13;;;1.90;;
3523;SDS011;1776;53.330;11.498;2023-02-01T09:26:38;6.10;;;1.30;;
3523;SDS011;1776;53.330;11.498;2023-02-01T09:29:03;10.30;;;3.17;;
3523;SDS011;1776;53.330;11.498;2023-02-01T09:31:34;5.43;;;1.63;;
3523;SDS011;1776;53.330;11.498;2023-02-01T09:34:00;4.40;;;2.47;;
3523;SDS011;1776;53.330;11.498;2023-02-01T09:36:25;7.57;;;2.27;;
3523;SDS011;1776;53.330;11.498;2023-02-01T09:38:51;10.03;;;2.67;;
3523;SDS011;1776;53.330;11.498;2023-02-01T09:46:42;16.10;;;3.30;;
3523;SDS011;1776;53.330;11.498;2023-02-01T09:49:12;19.20;;;3.27;;
3523;SDS011;1776;53.330;11.498;2023-02-01T09:51:46;22.97;;;3.77;;
3523;SDS011;1776;53.330;11.498;2023-02-01T09:54:18;21.20;;;3.63;;
3523;SDS011;1776;53.330;11.498;2023-02-01T09:56:54;19.97;;;3.57;;
3523;SDS011;1776;53.330;11.498;2023-02-01T10:02:08;12.23;;;3.10;;
3523;SDS011;1776;53.330;11.498;2023-02-01T10:04:38;20.57;;;3.83;;
3523;SDS011;1776;53.330;11.498;2023-02-01T10:07:47;11.20;;;4.03;;
3523;SDS011;1776;53.330;11.498;2023-02-01T10:10:02;23.67;;;3.90;;
3523;SDS011;1776;53.330;11.498;2023-02-01T10:15:40;15.60;;;4.50;;
3523;SDS011;1776;53.330;11.498;2023-02-01T10:18:29;18.67;;;3.67;;
3523;SDS011;1776;53.330;11.498;2023-02-01T10:23:52;17.30;;;4.70;;
3523;SDS011;1776;53.330;11.498;2023-02-01T10:26:35;21.07;;;4.90;;
3523;SDS011;1776;53.330;11.498;2023-02-01T10:29:04;18.23;;;4.17;;
3523;SDS011;1776;53.330;11.498;2023-02-01T10:31:41;24.27;;;6.40;;
3523;SDS011;1776;53.330;11.498;2023-02-01T10:34:21;3.93;;;1.53;;
3523;SDS011;1776;53.330;11.498;2023-02-01T10:36:55;5.73;;;2.17;;
3523;SDS011;1776;53.330;11.498;2023-02-01T10:39:24;7.17;;;1.70;;
3523;SDS011;1776;53.330;11.498;2023-02-01T10:41:50;3.70;;;1.00;;
3523;SDS011;1776;53.330;11.498;2023-02-01T10:44:16;1.90;;;0.90;;
3523;SDS011;1776;53.330;11.498;2023-02-01T10:46:45;2.90;;;1.20;;
3523;SDS011;1776;53.330;11.498;2023-02-01T10:49:16;2.43;;;1.10;;
3523;SDS011;1776;53.330;11.498;2023-02-01T10:51:53;1.70;;;1.07;;
3523;SDS011;1776;53.330;11.498;2023-02-01T10:54:36;5.67;;;1.33;;
3523;SDS011;1776;53.330;11.498;2023-02-01T10:57:06;5.60;;;1.20;;
3523;SDS011;1776;53.330;11.498;2023-02-01T10:59:44;7.30;;;2.87;;
3523;SDS011;1776;53.330;11.498;2023-02-01T11:02:17;5.83;;;1.30;;
3523;SDS011;1776;53.330;11.498;2023-02-01T11:04:51;2.67;;;1.97;;
3523;SDS011;1776;53.330;11.498;2023-02-01T11:07:25;12.00;;;2.60;;
3523;SDS011;1776;53.330;11.498;2023-02-01T11:09:51;4.07;;;1.63;;
3523;SDS011;1776;53.330;11.498;2023-02-01T11:12:22;7.53;;;1.70;;
3523;SDS011;1776;53.330;11.498;2023-02-01T11:14:50;11.23;;;3.00;;
3523;SDS011;1776;53.330;11.498;2023-02-01T11:19:46;17.50;;;2.63;;
3523;SDS011;1776;53.330;11.498;2023-02-01T11:22:25;10.93;;;2.90;;
3523;SDS011;1776;53.330;11.498;2023-02-01T11:24:52;20.27;;;4.37;;
3523;SDS011;1776;53.330;11.498;2023-02-01T11:27:18;11.20;;;2.33;;
3523;SDS011;1776;53.330;11.498;2023-02-01T11:29:47;16.10;;;3.60;;
3523;SDS011;1776;53.330;11.498;2023-02-01T11:32:17;12.03;;;2.77;;
3523;SDS011;1776;53.330;11.498;2023-02-01T11:34:55;14.63;;;3.87;;
3523;SDS011;1776;53.330;11.498;2023-02-01T11:37:26;18.40;;;4.67;;
3523;SDS011;1776;53.330;11.498;2023-02-01T11:39:55;14.13;;;2.50;;
3523;SDS011;1776;53.330;11.498;2023-02-01T11:42:39;20.13;;;4.07;;
3523;SDS011;1776;53.330;11.498;2023-02-01T11:45:26;15.83;;;4.17;;
3523;SDS011;1776;53.330;11.498;2023-02-01T11:47:54;16.60;;;3.43;;
3523;SDS011;1776;53.330;11.498;2023-02-01T11:50:26;11.03;;;2.70;;
3523;SDS011;1776;53.330;11.498;2023-02-01T11:53:09;17.27;;;3.60;;
3523;SDS011;1776;53.330;11.498;2023-02-01T11:56:00;8.27;;;2.00;;
3523;SDS011;1776;53.330;11.498;2023-02-01T11:58:38;9.23;;;3.53;;
3523;SDS011;1776;53.330;11.498;2023-02-01T12:04:24;12.73;;;2.40;;
3523;SDS011;1776;53.330;11.498;2023-02-01T12:06:55;9.97;;;2.83;;
3523;SDS011;1776;53.330;11.498;2023-02-01T12:09:45;13.10;;;3.50;;
3523;SDS011;1776;53.330;11.498;2023-02-01T12:12:25;5.67;;;2.63;;
3523;SDS011;1776;53.330;11.498;2023-02-01T12:34:19;6.00;;;2.03;;
3523;SDS011;1776;53.330;11.498;2023-02-01T12:37:11;10.43;;;2.37;;
3523;SDS011;1776;53.330;11.498;2023-02-01T12:42:40;13.43;;;2.93;;
3523;SDS011;1776;53.330;11.498;2023-02-01T12:45:19;9.30;;;3.90;;
3523;SDS011;1776;53.330;11.498;2023-02-01T12:47:55;5.10;;;2.43;;
3523;SDS011;1776;53.330;11.498;2023-02-01T12:50:38;7.57;;;1.93;;
3523;SDS011;1776;53.330;11.498;2023-02-01T12:53:23;8.30;;;3.10;;
3523;SDS011;1776;53.330;11.498;2023-02-01T12:55:53;10.10;;;2.40;;
3523;SDS011;1776;53.330;11.498;2023-02-01T12:58:32;10.60;;;3.27;;
3523;SDS011;1776;53.330;11.498;2023-02-01T13:01:06;9.10;;;2.40;;
3523;SDS011;1776;53.330;11.498;2023-02-01T13:03:37;9.80;;;2.30;;
3523;SDS011;1776;53.330;11.498;2023-02-01T13:06:13;8.40;;;3.47;;
3523;SDS011;1776;53.330;11.498;2023-02-01T13:08:47;8.97;;;2.30;;
3523;SDS011;1776;53.330;11.498;2023-02-01T13:11:20;14.03;;;4.30;;
3523;SDS011;1776;53.330;11.498;2023-02-01T13:16:30;7.10;;;2.40;;
3523;SDS011;1776;53.330;11.498;2023-02-01T13:19:00;10.07;;;5.50;;
3523;SDS011;1776;53.330;11.498;2023-02-01T13:21:32;9.60;;;3.63;;
3523;SDS011;1776;53.330;11.498;2023-02-01T13:24:03;6.30;;;2.23;;
3523;SDS011;1776;53.330;11.498;2023-02-01T13:26:28;4.93;;;2.53;;
3523;SDS011;1776;53.330;11.498;2023-02-01T13:37:33;5.20;;;2.50;;
3523;SDS011;1776;53.330;11.498;2023-02-01T13:43:07;4.10;;;1.70;;
3523;SDS011;1776;53.330;11.498;2023-02-01T13:45:42;6.80;;;2.40;;
3523;SDS011;1776;53.330;11.498;2023-02-01T13:48:17;6.33;;;1.77;;
3523;SDS011;1776;53.330;11.498;2023-02-01T13:50:49;6.13;;;1.20;;
3523;SDS011;1776;53.330;11.498;2023-02-01T13:53:18;1.20;;;0.80;;
3523;SDS011;1776;53.330;11.498;2023-02-01T13:55:55;1.83;;;1.10;;
3523;SDS011;1776;53.330;11.498;2023-02-01T13:58:34;4.40;;;1.67;;
3523;SDS011;1776;53.330;11.498;2023-02-01T14:03:46;3.30;;;2.13;;
3523;SDS011;1776;53.330;11.498;2023-02-01T14:16:38;5.47;;;2.60;;
3523;SDS011;1776;53.330;11.498;2023-02-01T14:19:06;6.43;;;3.00;;
3523;SDS011;1776;53.330;11.498;2023-02-01T14:21:34;4.83;;;2.80;;
3523;SDS011;1776;53.330;11.498;2023-02-01T14:26:43;3.33;;;3.03;;
3523;SDS011;1776;53.330;11.498;2023-02-01T14:34:30;1.57;;;0.60;;
3523;SDS011;1776;53.330;11.498;2023-02-01T14:44:47;1.17;;;0.70;;
3523;SDS011;1776;53.330;11.498;2023-02-01T14:52:36;1.80;;;1.37;;
3523;SDS011;1776;53.330;11.498;2023-02-01T14:55:10;3.90;;;1.00;;
3523;SDS011;1776;53.330;11.498;2023-02-01T14:57:47;2.50;;;1.37;;
3523;SDS011;1776;53.330;11.498;2023-02-01T15:02:53;1.20;;;0.90;;
3523;SDS011;1776;53.330;11.498;2023-02-01T15:05:24;2.57;;;1.83;;
3523;SDS011;1776;53.330;11.498;2023-02-01T15:07:55;2.93;;;1.10;;
3523;SDS011;1776;53.330;11.498;2023-02-01T15:10:25;3.17;;;1.33;;
3523;SDS011;1776;53.330;11.498;2023-02-01T15:12:51;2.40;;;1.27;;
3523;SDS011;1776;53.330;11.498;2023-02-01T15:15:21;2.93;;;1.00;;
3523;SDS011;1776;53.330;11.498;2023-02-01T15:17:49;1.33;;;0.80;;
3523;SDS011;1776;53.330;11.498;2023-02-01T15:20:27;2.07;;;1.03;;
3523;SDS011;1776;53.330;11.498;2023-02-01T15:27:55;0.93;;;0.70;;
3523;SDS011;1776;53.330;11.498;2023-02-01T15:30:26;8.80;;;3.13;;
3523;SDS011;1776;53.330;11.498;2023-02-01T15:33:15;1.77;;;1.60;;
3523;SDS011;1776;53.330;11.498;2023-02-01T15:35:43;1.57;;;1.10;;
3523;SDS011;1776;53.330;11.498;2023-02-01T15:40:54;1.47;;;0.90;;
3523;SDS011;1776;53.330;11.498;2023-02-01T15:43:22;1.40;;;1.00;;
3523;SDS011;1776;53.330;11.498;2023-02-01T15:45:48;1.30;;;1.10;;
3523;SDS011;1776;53.330;11.498;2023-02-01T15:48:19;4.20;;;0.80;;
3523;SDS011;1776;53.330;11.498;2023-02-01T15:50:47;2.00;;;1.37;;
3523;SDS011;1776;53.330;11.498;2023-02-01T15:53:14;2.60;;;0.83;;
3523;SDS011;1776;53.330;11.498;2023-02-01T15:55:44;3.07;;;0.90;;
3523;SDS011;1776;53.330;11.498;2023-02-01T15:58:15;2.30;;;0.90;;
3523;SDS011;1776;53.330;11.498;2023-02-01T16:00:50;0.90;;;0.80;;
3523;SDS011;1776;53.330;11.498;2023-02-01T16:03:26;0.90;;;0.80;;
3523;SDS011;1776;53.330;11.498;2023-02-01T16:05:55;1.27;;;0.90;;
3523;SDS011;1776;53.330;11.498;2023-02-01T16:08:26;6.43;;;1.30;;
3523;SDS011;1776;53.330;11.498;2023-02-01T16:11:19;5.00;;;1.07;;
3523;SDS011;1776;53.330;11.498;2023-02-01T16:13:48;1.40;;;1.20;;
3523;SDS011;1776;53.330;11.498;2023-02-01T16:16:14;1.70;;;1.23;;
3523;SDS011;1776;53.330;11.498;2023-02-01T16:18:42;1.87;;;1.00;;
3523;SDS011;1776;53.330;11.498;2023-02-01T16:21:08;1.40;;;1.00;;
3523;SDS011;1776;53.330;11.498;2023-02-01T16:23:34;2.70;;;1.13;;
3523;SDS011;1776;53.330;11.498;2023-02-01T16:26:00;2.10;;;1.23;;
3523;SDS011;1776;53.330;11.498;2023-02-01T16:28:25;3.57;;;1.37;;
3523;SDS011;1776;53.330;11.498;2023-02-01T16:30:51;3.60;;;1.40;;
3523;SDS011;1776;53.330;11.498;2023-02-01T16:33:18;6.17;;;2.20;;
3523;SDS011;1776;53.330;11.498;2023-02-01T16:35:46;3.27;;;1.00;;
3523;SDS011;1776;53.330;11.498;2023-02-01T16:38:13;9.63;;;1.70;;
3523;SDS011;1776;53.330;11.498;2023-02-01T16:40:43;3.27;;;1.37;;
3523;SDS011;1776;53.330;11.498;2023-02-01T16:43:19;3.43;;;1.10;;
3523;SDS011;1776;53.330;11.498;2023-02-01T16:45:47;6.57;;;1.80;;
3523;SDS011;1776;53.330;11.498;2023-02-01T16:48:26;29.97;;;10.57;;
3523;SDS011;1776;53.330;11.498;2023-02-01T16:50:55;6.13;;;2.10;;
3523;SDS011;1776;53.330;11.498;2023-02-01T16:53:22;11.60;;;5.20;;
3523;SDS011;1776;53.330;11.498;2023-02-01T16:55:50;5.77;;;4.07;;
3523;SDS011;1776;53.330;11.498;2023-02-01T16:58:17;7.27;;;3.63;;
3523;SDS011;1776;53.330;11.498;2023-02-01T17:00:42;4.33;;;2.70;;
3523;SDS011;1776;53.330;11.498;2023-02-01T17:03:09;14.40;;;4.70;;
3523;SDS011;1776;53.330;11.498;2023-02-01T17:05:35;2.60;;;2.33;;
3523;SDS011;1776;53.330;11.498;2023-02-01T17:08:02;8.50;;;2.17;;
3523;SDS011;1776;53.330;11.498;2023-02-01T17:10:30;7.30;;;2.10;;
3523;SDS011;1776;53.330;11.498;2023-02-01T17:12:56;8.10;;;1.87;;